Terminal Aerodrome Forecast
Issued by NWS

Current Version | Previous Version | Graphics & Text | Print | Product List | Glossary On
Versions: 1 2 3 4 5 6 7 8 9 10 11 12 13 14 15 16 17 18 19
000
FTUS41 KRNK 231706 AAA
TAFLWB
TAF AMD
KLWB 231706Z 2317/2412 10006KT P6SM -RA OVC026
      TEMPO 2317/2320 2SM RA BR OVC007
     FM232300 09005KT 5SM RA BR OVC020
     FM240600 08006KT 5SM -RA BR OVC020=

USA.gov is the U.S. government's official web portal to all federal, state and local government web resources and services.